Time;durP1;ratioP1;P1;durP2;ratioP2;P2;SDS_P1;SDS_P2;PMS_P1;PMS_P2;Temp;Humidity;BMP_temperature;BMP_pressure;BME280_temperature;BME280_humidity;BME280_pressure;Samples;Min_cycle;Max_cycle;Signal;HPM_P1;HPM_P2
2022/11/04 00:02:21;;;;;;;13.23;11.85;;;11.90;99.90;;;;;;4894811;29;20044;-93
2022/11/04 00:04:47;;;;;;;13.07;11.68;;;11.90;99.90;;;;;;4894788;29;20115;-96
2022/11/04 00:09:56;;;;;;;8.95;5.43;;;11.90;99.90;;;;;;4881506;29;20037;-94
2022/11/04 00:12:25;;;;;;;6.53;4.00;;;11.80;99.90;;;;;;4896123;29;20363;-93
2022/11/04 00:14:50;;;;;;;6.28;3.70;;;11.70;99.90;;;;;;4896965;29;20043;-90
2022/11/04 00:17:18;;;;;;;5.93;3.30;;;11.70;99.90;;;;;;4863826;29;20045;-92
2022/11/04 00:33:27;;;;;;;5.07;2.40;;;11.40;99.90;;;;;;4927118;23;20148;-92
2022/11/04 00:35:55;;;;;;;5.13;2.38;;;11.30;99.90;;;;;;4909612;29;20069;-95
2022/11/04 00:38:25;;;;;;;3.90;1.90;;;11.30;99.90;;;;;;4904528;29;20048;-93
2022/11/04 00:40:51;;;;;;;3.72;1.75;;;11.30;99.90;;;;;;4902677;29;20063;-96
2022/11/04 00:43:16;;;;;;;3.03;1.33;;;11.30;99.90;;;;;;4899465;29;20072;-94
2022/11/04 00:45:42;;;;;;;3.67;1.40;;;11.30;99.90;;;;;;4918691;29;20207;-95
2022/11/04 00:48:08;;;;;;;3.65;1.38;;;11.20;99.90;;;;;;4906357;29;20058;-96
2022/11/04 00:50:34;;;;;;;4.03;1.30;;;11.20;99.90;;;;;;4905300;29;20118;-91
2022/11/04 00:53:01;;;;;;;5.32;1.30;;;11.20;99.90;;;;;;4969104;23;20059;-95
2022/11/04 00:55:30;;;;;;;2.67;0.90;;;11.20;99.90;;;;;;4910021;29;20056;-94
2022/11/04 00:57:56;;;;;;;3.92;0.90;;;11.20;99.90;;;;;;4957301;23;20055;-95
2022/11/04 01:00:22;;;;;;;2.67;0.82;;;11.10;99.90;;;;;;4903532;29;20095;-96
2022/11/04 01:02:48;;;;;;;1.35;0.70;;;11.10;99.90;;;;;;4940532;23;20083;-92
2022/11/04 01:05:13;;;;;;;1.35;0.60;;;11.10;99.90;;;;;;4895006;29;20441;-93
2022/11/04 01:07:39;;;;;;;2.65;0.80;;;11.10;99.90;;;;;;4918902;29;20032;-94
2022/11/04 01:10:06;;;;;;;3.08;0.73;;;11.10;99.90;;;;;;5079323;23;20039;-96
2022/11/04 01:12:31;;;;;;;3.08;0.90;;;11.00;99.90;;;;;;4928870;23;20052;-96
2022/11/04 01:14:58;;;;;;;2.83;1.00;;;11.00;99.90;;;;;;4909563;29;20055;-96
2022/11/04 01:17:23;;;;;;;2.75;1.05;;;11.00;99.90;;;;;;4888139;29;20040;-96
2022/11/04 01:19:49;;;;;;;5.05;1.40;;;11.00;99.90;;;;;;4880257;29;20048;-91
2022/11/04 01:22:14;;;;;;;2.65;1.10;;;11.00;99.90;;;;;;4869043;29;20041;-93
2022/11/04 01:24:40;;;;;;;5.13;1.30;;;11.00;99.90;;;;;;4877431;29;20127;-93
2022/11/04 01:27:05;;;;;;;2.85;1.13;;;11.00;99.90;;;;;;4880007;29;20478;-96
2022/11/04 01:29:31;;;;;;;4.75;1.40;;;11.10;99.90;;;;;;4905726;29;20048;-95
2022/11/04 01:31:58;;;;;;;5.03;1.45;;;11.10;99.90;;;;;;4873603;29;20088;-96
2022/11/04 01:34:23;;;;;;;4.93;1.23;;;11.10;99.90;;;;;;4906124;29;20161;-96
2022/11/04 01:36:49;;;;;;;4.35;1.40;;;11.10;99.90;;;;;;4866654;29;20409;-96
2022/11/04 01:39:14;;;;;;;4.43;1.30;;;11.10;99.90;;;;;;4896048;29;20048;-90
2022/11/04 01:41:40;;;;;;;5.00;1.52;;;11.10;99.90;;;;;;4897763;29;20044;-96
2022/11/04 01:44:50;;;;;;;4.32;1.25;;;11.20;99.90;;;;;;4901582;29;20088;-96
2022/11/04 01:47:40;;;;;;;3.65;1.30;;;11.10;99.90;;;;;;5047227;23;20048;-93
2022/11/04 01:50:17;;;;;;;4.60;1.50;;;11.20;99.90;;;;;;5459903;23;20989;-96
2022/11/04 01:53:17;;;;;;;4.53;1.40;;;11.10;99.90;;;;;;4870591;29;20097;-94
2022/11/04 01:55:50;;;;;;;5.72;1.50;;;11.10;99.90;;;;;;4907043;23;20048;-94
2022/11/04 01:58:29;;;;;;;6.05;1.17;;;11.20;99.90;;;;;;5004658;23;20077;31
2022/11/04 02:00:55;;;;;;;5.18;1.45;;;11.20;99.90;;;;;;4924244;23;20053;-95
2022/11/04 02:03:35;;;;;;;4.53;1.10;;;11.20;99.90;;;;;;4884845;29;20044;-92
2022/11/04 02:06:02;;;;;;;4.85;1.10;;;11.20;99.90;;;;;;4869243;29;20152;-94
2022/11/04 02:08:28;;;;;;;2.58;0.80;;;11.10;99.90;;;;;;4875962;29;20383;-94
2022/11/04 02:11:01;;;;;;;6.68;1.10;;;11.10;99.90;;;;;;4863993;29;20051;-96
2022/11/04 02:13:29;;;;;;;4.45;0.90;;;11.10;99.90;;;;;;4869856;29;20108;-94
2022/11/04 02:16:16;;;;;;;4.65;0.98;;;11.10;99.90;;;;;;4871312;29;20052;-95
2022/11/04 02:19:00;;;;;;;6.45;1.10;;;11.00;99.90;;;;;;4853184;29;20112;-95
2022/11/04 02:21:44;;;;;;;3.50;1.23;;;11.00;99.90;;;;;;4891636;29;20478;-92
2022/11/04 02:24:41;;;;;;;6.85;1.50;;;11.00;99.90;;;;;;4871771;29;20053;-95
2022/11/04 02:27:41;;;;;;;4.55;1.40;;;11.00;99.90;;;;;;4888590;29;20230;-96
2022/11/04 02:30:17;;;;;;;4.90;1.10;;;11.00;99.90;;;;;;4886261;29;20044;-96
2022/11/04 02:32:49;;;;;;;2.88;0.98;;;11.00;99.90;;;;;;4881441;29;20045;-96
2022/11/04 02:35:53;;;;;;;5.63;1.05;;;11.00;99.90;;;;;;4887766;29;20049;-92
2022/11/04 02:38:32;;;;;;;3.80;0.85;;;11.00;99.90;;;;;;4787154;29;20059;-95
2022/11/04 02:41:56;;;;;;;3.38;0.90;;;11.00;99.90;;;;;;4784860;29;20069;-94
2022/11/04 02:44:39;;;;;;;3.33;1.00;;;11.00;99.90;;;;;;4768534;30;20048;-96
2022/11/04 02:47:08;;;;;;;4.88;1.30;;;11.00;99.90;;;;;;4767756;30;20068;-95
2022/11/04 02:49:44;;;;;;;6.05;1.70;;;10.90;99.90;;;;;;5001360;23;20032;-96
2022/11/04 02:52:15;;;;;;;6.90;2.25;;;10.90;99.90;;;;;;4905135;29;20080;-96
2022/11/04 02:55:04;;;;;;;7.47;3.42;;;11.00;99.90;;;;;;4904928;29;20055;-95
2022/11/04 02:57:34;;;;;;;8.13;3.80;;;11.00;99.90;;;;;;4928838;29;20048;-94
2022/11/04 03:00:04;;;;;;;8.50;3.78;;;11.00;99.90;;;;;;4906310;29;20028;-96
2022/11/04 03:02:41;;;;;;;7.07;3.70;;;11.00;99.90;;;;;;4897110;29;20053;-96
2022/11/04 03:05:11;;;;;;;6.53;3.20;;;11.00;99.90;;;;;;4922538;29;20107;-96
2022/11/04 03:07:40;;;;;;;5.75;2.45;;;11.00;99.90;;;;;;4894423;29;20059;-96
2022/11/04 03:10:15;;;;;;;5.50;1.83;;;11.00;99.90;;;;;;4889250;29;20131;-96
2022/11/04 03:12:53;;;;;;;4.10;1.63;;;10.90;99.90;;;;;;4881935;29;20064;-93
2022/11/04 03:15:27;;;;;;;4.18;1.80;;;10.90;99.90;;;;;;4879626;29;20127;-94
2022/11/04 03:18:36;;;;;;;5.32;2.20;;;10.80;99.90;;;;;;4906286;29;20040;-91
2022/11/04 03:21:04;;;;;;;6.95;2.60;;;10.80;99.90;;;;;;4897227;29;20079;-93
2022/11/04 03:23:30;;;;;;;7.00;3.08;;;10.80;99.90;;;;;;4869009;29;20447;-95
2022/11/04 03:26:20;;;;;;;6.30;2.88;;;10.80;99.90;;;;;;4903774;29;20036;-95
2022/11/04 03:29:01;;;;;;;6.78;3.15;;;10.80;99.90;;;;;;4901495;29;20084;-90
2022/11/04 03:31:41;;;;;;;8.48;3.50;;;10.70;99.90;;;;;;4894121;29;20056;-95
2022/11/04 03:34:07;;;;;;;7.75;3.40;;;10.80;99.90;;;;;;4893527;29;20075;-93
2022/11/04 03:36:32;;;;;;;7.55;3.88;;;10.80;99.90;;;;;;4910231;29;20040;-90
2022/11/04 03:38:58;;;;;;;7.15;3.50;;;10.80;99.90;;;;;;4884187;29;20040;-89
2022/11/04 03:41:37;;;;;;;8.05;3.33;;;10.80;99.90;;;;;;4893607;29;20032;-90
2022/11/04 03:44:03;;;;;;;7.03;2.40;;;10.80;99.90;;;;;;4899218;29;20040;-92
2022/11/04 03:46:29;;;;;;;7.75;2.60;;;10.70;99.90;;;;;;4910621;29;20040;-94
2022/11/04 03:48:55;;;;;;;7.25;2.03;;;10.70;99.90;;;;;;4879566;29;20041;-93
2022/11/04 03:51:21;;;;;;;5.90;1.70;;;10.70;99.90;;;;;;4879624;29;20486;-96
2022/11/04 03:53:47;;;;;;;3.38;1.30;;;10.70;99.90;;;;;;4901977;29;20046;-90
2022/11/04 03:56:32;;;;;;;2.38;0.85;;;10.60;99.90;;;;;;4881775;29;20044;-94
2022/11/04 03:59:06;;;;;;;4.18;0.90;;;10.60;99.90;;;;;;4879778;29;20505;-91
2022/11/04 04:01:57;;;;;;;2.45;0.77;;;10.50;99.90;;;;;;4866621;29;20100;-89
2022/11/04 04:04:25;;;;;;;3.63;0.80;;;10.50;99.90;;;;;;4869977;29;20080;-91
2022/11/04 04:06:56;;;;;;;2.70;0.70;;;10.40;99.90;;;;;;4919415;29;20048;-95
2022/11/04 04:10:37;;;;;;;2.65;0.73;;;10.40;99.90;;;;;;4886820;29;20048;-94
2022/11/04 04:13:00;;;;;;;2.92;0.98;;;10.40;99.90;;;;;;4890550;29;20109;-95
2022/11/04 04:15:49;;;;;;;5.72;1.30;;;10.30;99.90;;;;;;4909575;29;20037;-96
2022/11/04 04:18:23;;;;;;;3.55;1.40;;;10.40;99.90;;;;;;4889397;29;20040;-96
2022/11/04 04:20:52;;;;;;;4.70;1.60;;;10.40;99.90;;;;;;4914731;29;20020;-96
2022/11/04 04:28:56;;;;;;;2.83;1.15;;;10.40;99.90;;;;;;4888610;29;20401;-95
2022/11/04 04:34:07;;;;;;;5.13;1.30;;;10.40;99.90;;;;;;4884629;29;20059;-94
2022/11/04 04:36:43;;;;;;;5.68;1.60;;;10.40;99.90;;;;;;4901207;29;20044;-94
2022/11/04 04:45:00;;;;;;;4.28;1.42;;;10.40;99.90;;;;;;4905120;29;20074;-94
2022/11/04 04:47:48;;;;;;;4.15;1.40;;;10.40;99.90;;;;;;4889984;29;20037;-95
2022/11/04 04:50:16;;;;;;;5.65;1.60;;;10.40;99.90;;;;;;4900254;29;20053;-92
2022/11/04 04:52:45;;;;;;;6.32;1.38;;;10.40;99.90;;;;;;4904251;29;20061;-89
2022/11/04 04:55:12;;;;;;;4.30;1.00;;;10.30;99.90;;;;;;4897236;29;20040;-94
2022/11/04 04:57:38;;;;;;;4.70;0.90;;;10.40;99.90;;;;;;4890825;29;20120;-91
2022/11/04 05:00:07;;;;;;;3.92;1.10;;;10.30;99.90;;;;;;4892013;29;20123;-94
2022/11/04 05:02:32;;;;;;;3.63;0.90;;;10.30;99.90;;;;;;4889860;29;20036;-92
2022/11/04 05:05:00;;;;;;;1.35;0.50;;;10.30;99.90;;;;;;4900509;29;20096;-95
2022/11/04 05:07:26;;;;;;;4.18;0.90;;;10.20;99.90;;;;;;4897226;29;20123;-92
2022/11/04 05:09:51;;;;;;;4.72;1.15;;;10.20;99.90;;;;;;4897251;29;20128;-90
2022/11/04 05:12:17;;;;;;;3.65;0.88;;;10.20;99.90;;;;;;4893953;29;20181;-94
2022/11/04 05:14:43;;;;;;;4.22;1.02;;;10.20;99.90;;;;;;4909216;29;20055;-96
2022/11/04 05:17:12;;;;;;;3.10;0.95;;;10.10;99.90;;;;;;4917859;29;20027;-96
2022/11/04 05:19:37;;;;;;;3.00;0.90;;;10.10;99.90;;;;;;4922789;29;20052;-95
2022/11/04 05:22:03;;;;;;;4.82;1.00;;;10.10;99.90;;;;;;4882671;29;20040;-96
2022/11/04 05:24:29;;;;;;;1.92;0.80;;;10.10;99.90;;;;;;4889404;29;20044;-96
2022/11/04 05:26:55;;;;;;;4.30;0.90;;;10.10;99.90;;;;;;4917357;29;20055;-96
2022/11/04 05:29:21;;;;;;;3.92;0.90;;;10.00;99.90;;;;;;4899129;29;20049;-96
2022/11/04 05:31:46;;;;;;;2.83;0.80;;;10.00;99.90;;;;;;4903928;29;20052;-96
2022/11/04 05:34:13;;;;;;;4.85;0.90;;;10.00;99.90;;;;;;4912181;29;20070;-96
2022/11/04 15:32:17;;;;;;;11.32;6.40;;;10.20;99.90;;;;;;4238764;27;20060;-89
2022/11/04 15:34:44;;;;;;;8.93;2.65;;;10.20;99.90;;;;;;4857842;29;20128;-95
2022/11/04 15:37:11;;;;;;;4.90;1.70;;;10.10;99.90;;;;;;4858218;29;20044;-93
2022/11/04 15:39:44;;;;;;;7.80;2.67;;;10.00;99.90;;;;;;4858763;29;20036;-91
2022/11/04 15:45:35;;;;;;;9.07;2.58;;;10.00;99.90;;;;;;4887714;29;20052;-93
2022/11/04 15:48:26;;;;;;;10.25;3.65;;;10.00;99.90;;;;;;4877678;29;20060;-92
2022/11/04 15:51:14;;;;;;;11.45;7.95;;;10.00;99.90;;;;;;4872554;29;20143;-91
2022/11/04 15:53:51;;;;;;;12.38;10.40;;;10.00;99.90;;;;;;4856480;29;20045;-92
2022/11/04 15:56:20;;;;;;;12.13;7.75;;;10.00;99.90;;;;;;4875707;29;20060;-93
2022/11/04 15:58:47;;;;;;;13.07;8.88;;;9.90;99.90;;;;;;4871698;29;20041;-91
2022/11/04 16:01:16;;;;;;;11.65;7.97;;;9.90;99.90;;;;;;4863715;29;20136;-93
2022/11/04 16:03:55;;;;;;;11.88;4.55;;;9.90;99.90;;;;;;4864510;29;20095;-93
2022/11/04 16:06:35;;;;;;;8.40;2.50;;;9.90;99.90;;;;;;4861349;29;20044;-93
2022/11/04 16:09:13;;;;;;;8.50;3.55;;;9.80;99.90;;;;;;4879630;29;20123;-93
2022/11/04 16:11:39;;;;;;;8.98;4.55;;;9.80;99.90;;;;;;4896938;29;20829;-93
2022/11/04 16:14:21;;;;;;;10.60;5.18;;;9.80;99.90;;;;;;4877067;29;20051;-94
2022/11/04 16:16:48;;;;;;;10.32;5.70;;;9.70;99.90;;;;;;4861658;29;20036;-93
2022/11/04 16:19:24;;;;;;;10.80;7.50;;;9.80;99.90;;;;;;4865495;29;20076;-92
2022/11/04 16:21:59;;;;;;;11.15;8.50;;;9.70;99.90;;;;;;4897779;29;20097;-93
2022/11/04 16:24:29;;;;;;;11.38;7.10;;;9.70;99.90;;;;;;4865324;29;20048;-94
2022/11/04 16:26:56;;;;;;;13.40;6.22;;;9.80;99.90;;;;;;4863858;29;20549;-93
2022/11/04 16:29:33;;;;;;;12.40;5.22;;;9.70;99.90;;;;;;4878831;29;20047;-93
2022/11/04 16:32:16;;;;;;;20.27;17.95;;;9.70;99.90;;;;;;4876457;29;20128;-93
2022/11/04 16:34:43;;;;;;;17.75;12.40;;;9.70;99.90;;;;;;4913365;29;20048;-91
2022/11/04 16:37:09;;;;;;;16.73;11.07;;;9.60;99.90;;;;;;4894949;29;20045;-89
2022/11/04 16:39:35;;;;;;;14.25;8.35;;;9.60;99.90;;;;;;4893422;29;20119;-89
2022/11/04 16:42:01;;;;;;;12.55;8.43;;;9.50;99.90;;;;;;4900709;29;20092;-89
2022/11/04 16:44:26;;;;;;;12.02;5.68;;;9.50;99.90;;;;;;4894193;29;20119;-90
2022/11/04 16:46:53;;;;;;;13.23;8.07;;;9.40;99.90;;;;;;4903598;29;20397;-93
2022/11/04 16:49:22;;;;;;;13.98;9.35;;;9.40;99.90;;;;;;4901365;29;20092;-92
2022/11/04 16:51:54;;;;;;;23.38;20.38;;;9.40;99.90;;;;;;4903681;29;20072;-94
2022/11/04 16:54:19;;;;;;;;;;;9.40;99.90;;;;;;4902151;29;20493;-94
2022/11/04 16:56:45;;;;;;;11.38;4.38;;;9.30;99.90;;;;;;4901928;29;19923;-95
2022/11/04 16:59:11;;;;;;;22.65;13.52;;;9.20;99.90;;;;;;4901128;29;20075;-96
2022/11/04 17:01:40;;;;;;;16.70;10.32;;;9.20;99.90;;;;;;4883449;29;20528;-95
2022/11/04 17:04:06;;;;;;;8.68;4.32;;;9.20;99.90;;;;;;4868244;29;20061;-94
2022/11/04 17:06:33;;;;;;;14.15;8.77;;;9.10;99.90;;;;;;4907685;29;20048;-92
2022/11/04 17:09:00;;;;;;;12.52;8.30;;;9.10;99.90;;;;;;4902849;29;20084;-96
2022/11/04 17:11:26;;;;;;;11.23;6.47;;;9.10;99.90;;;;;;4903049;29;20040;-95
2022/11/04 17:13:51;;;;;;;11.82;6.05;;;9.10;99.90;;;;;;4886820;29;20044;-93
2022/11/04 17:16:17;;;;;;;9.80;3.72;;;9.10;99.90;;;;;;4919957;29;20032;-92
2022/11/04 17:18:43;;;;;;;7.28;3.45;;;9.00;99.90;;;;;;4909416;29;20044;-95
2022/11/04 17:21:12;;;;;;;11.02;5.95;;;8.90;99.90;;;;;;4886433;29;20044;-95
2022/11/04 17:23:38;;;;;;;11.98;8.63;;;9.00;99.90;;;;;;4901288;29;20073;-92
2022/11/04 17:26:04;;;;;;;12.23;8.20;;;9.00;99.90;;;;;;4911446;29;20043;-91
2022/11/04 17:28:31;;;;;;;14.55;9.18;;;9.00;99.90;;;;;;4893286;29;20040;-92
2022/11/04 17:30:57;;;;;;;10.98;4.47;;;8.90;99.90;;;;;;4892624;29;20064;-92
2022/11/04 17:33:23;;;;;;;7.18;2.80;;;8.80;99.90;;;;;;4881316;29;20401;-91
2022/11/04 17:35:50;;;;;;;14.55;8.77;;;8.80;99.90;;;;;;4882429;29;20101;-92
2022/11/04 17:38:17;;;;;;;10.00;4.65;;;8.80;99.90;;;;;;4915671;29;20386;-92
2022/11/04 17:48:57;;;;;;;18.50;14.93;;;8.50;99.90;;;;;;4900321;29;20071;-96
2022/11/04 17:51:23;;;;;;;14.68;10.38;;;8.50;99.90;;;;;;4901925;29;20121;-95
2022/11/04 17:53:49;;;;;;;12.23;7.65;;;8.50;99.90;;;;;;4918398;29;20448;-95
2022/11/04 17:56:16;;;;;;;10.68;5.68;;;8.50;99.90;;;;;;4886216;29;20036;-96
2022/11/04 17:58:42;;;;;;;10.07;4.88;;;8.40;99.90;;;;;;4884155;29;20036;-96
2022/11/04 18:01:09;;;;;;;8.88;5.07;;;8.30;99.90;;;;;;4916897;29;20051;-94
2022/11/04 18:03:35;;;;;;;9.88;5.35;;;8.20;99.90;;;;;;4897107;29;20080;-93
2022/11/04 18:06:03;;;;;;;7.93;3.60;;;8.20;99.90;;;;;;4915251;29;20408;-92
2022/11/04 18:08:29;;;;;;;12.30;6.80;;;8.30;99.90;;;;;;4883259;29;20076;-93
2022/11/04 18:10:58;;;;;;;13.80;6.63;;;8.10;99.90;;;;;;4897171;29;20124;-89
2022/11/04 18:13:24;;;;;;;9.48;4.55;;;8.20;99.90;;;;;;4881491;29;20040;-92
2022/11/04 18:15:50;;;;;;;10.85;4.68;;;8.10;99.90;;;;;;4889767;29;20402;-93
2022/11/04 18:18:16;;;;;;;10.35;4.60;;;8.00;99.90;;;;;;4865677;29;20045;-93
2022/11/04 18:20:41;;;;;;;6.85;3.05;;;8.00;99.90;;;;;;4875685;29;20132;-91
2022/11/04 18:23:07;;;;;;;12.70;5.95;;;7.90;99.90;;;;;;4882927;29;20127;-93
2022/11/04 18:25:33;;;;;;;7.60;3.00;;;8.00;99.90;;;;;;4898467;29;20416;-92
2022/11/04 18:27:59;;;;;;;8.00;2.58;;;7.90;99.90;;;;;;4904981;29;20044;-93
2022/11/04 18:30:25;;;;;;;6.70;2.03;;;7.80;99.90;;;;;;4895483;29;20123;-93
2022/11/04 18:32:51;;;;;;;9.07;3.40;;;7.90;99.90;;;;;;4910931;29;20103;-92
2022/11/04 18:35:17;;;;;;;12.18;3.33;;;7.80;99.90;;;;;;4916404;29;20035;-92
2022/11/04 18:37:43;;;;;;;7.90;2.67;;;7.80;99.90;;;;;;4902334;29;20437;-95
2022/11/04 18:40:09;;;;;;;15.10;8.13;;;7.80;99.90;;;;;;4880698;29;20664;-93
2022/11/04 18:42:35;;;;;;;12.27;5.80;;;7.80;99.90;;;;;;4894013;29;20045;-92
2022/11/04 18:45:01;;;;;;;10.20;4.55;;;7.80;99.90;;;;;;4863297;29;20055;-92
2022/11/04 18:47:26;;;;;;;11.77;5.07;;;7.70;99.90;;;;;;4897572;29;20144;-94
2022/11/04 18:49:52;;;;;;;26.10;23.30;;;7.70;99.90;;;;;;4866571;29;20037;-93
2022/11/04 18:52:18;;;;;;;21.25;17.27;;;7.80;99.90;;;;;;4915191;29;20095;-93
2022/11/04 18:54:43;;;;;;;16.23;11.52;;;7.80;99.90;;;;;;4897936;29;20035;-93
2022/11/04 18:57:10;;;;;;;17.05;10.98;;;7.80;99.90;;;;;;4915681;29;20123;-93
2022/11/04 18:59:36;;;;;;;17.30;11.65;;;7.80;99.90;;;;;;4883352;29;20397;-92
2022/11/04 19:02:03;;;;;;;10.55;4.68;;;7.90;99.90;;;;;;4898828;29;20055;-92
2022/11/04 19:04:29;;;;;;;9.93;5.45;;;7.80;99.90;;;;;;4882456;29;20040;-92
2022/11/04 19:06:54;;;;;;;15.60;9.82;;;7.70;99.90;;;;;;4898156;29;20047;-92
2022/11/04 19:09:20;;;;;;;11.43;5.75;;;7.80;99.90;;;;;;4897388;29;20072;-92
2022/11/04 19:11:46;;;;;;;8.82;4.30;;;7.70;99.90;;;;;;4897758;29;20067;-92
2022/11/04 19:14:14;;;;;;;21.80;14.48;;;7.60;99.90;;;;;;4898437;29;20040;-92
2022/11/04 19:16:41;;;;;;;19.52;17.58;;;7.60;99.90;;;;;;4882564;29;20051;-91
2022/11/04 19:19:09;;;;;;;11.57;7.40;;;7.60;99.90;;;;;;4898342;29;20397;-92
2022/11/04 19:21:35;;;;;;;9.85;4.32;;;7.60;99.90;;;;;;4882939;29;20086;-91
2022/11/04 19:24:01;;;;;;;11.15;5.72;;;7.60;99.90;;;;;;4913652;29;20071;-93
2022/11/04 19:26:30;;;;;;;12.07;4.63;;;7.50;99.90;;;;;;4898068;29;20048;-92
2022/11/04 19:28:56;;;;;;;15.85;9.80;;;7.50;99.90;;;;;;4914750;29;20044;-90
2022/11/04 19:31:25;;;;;;;18.30;11.38;;;7.50;99.90;;;;;;4915007;29;20429;-92
2022/11/04 19:33:52;;;;;;;19.40;11.20;;;7.60;99.90;;;;;;4881077;29;20050;-92
2022/11/04 19:36:19;;;;;;;17.98;11.65;;;7.60;99.90;;;;;;4914928;29;20044;-92
2022/11/04 19:38:46;;;;;;;13.68;6.43;;;7.60;99.90;;;;;;4892180;29;20036;-92
2022/11/04 19:44:05;;;;;;;14.10;7.55;;;7.60;99.90;;;;;;4895990;29;20485;-91
2022/11/04 19:46:31;;;;;;;17.02;13.18;;;7.60;99.90;;;;;;4882423;29;20044;-92
2022/11/04 19:48:58;;;;;;;12.43;6.05;;;7.60;99.90;;;;;;4880832;29;20040;-92
2022/11/04 19:51:24;;;;;;;11.73;4.35;;;7.60;99.90;;;;;;4882113;29;20095;-91
2022/11/04 19:53:50;;;;;;;12.43;7.88;;;7.50;99.90;;;;;;4880559;29;20055;-93
2022/11/04 19:56:16;;;;;;;9.63;4.00;;;7.60;99.90;;;;;;4901764;29;20048;-92
2022/11/04 19:58:43;;;;;;;7.18;3.15;;;7.60;99.90;;;;;;4916956;29;20036;-92
2022/11/04 20:01:10;;;;;;;10.23;4.07;;;7.50;99.90;;;;;;4897940;29;20076;-92
2022/11/04 20:03:37;;;;;;;14.57;7.53;;;7.50;99.90;;;;;;4898276;29;20475;-92
2022/11/04 20:06:02;;;;;;;9.07;3.50;;;7.50;99.90;;;;;;4896988;29;20048;-92
2022/11/04 20:08:28;;;;;;;9.48;3.50;;;7.40;99.90;;;;;;4906432;29;20389;-91
2022/11/04 20:10:54;;;;;;;16.90;9.75;;;7.40;99.90;;;;;;4897409;29;20032;-94
2022/11/04 20:16:22;;;;;;;23.15;14.93;;;7.40;99.90;;;;;;4897372;29;20083;-93
2022/11/04 20:18:55;;;;;;;16.70;8.27;;;7.40;99.90;;;;;;4880662;29;20074;-92
2022/11/04 20:21:22;;;;;;;19.08;11.27;;;7.40;99.90;;;;;;4897367;29;20401;-92
2022/11/04 20:23:48;;;;;;;12.85;5.88;;;7.50;99.90;;;;;;4896612;29;20449;-92
2022/11/04 20:26:17;;;;;;;16.27;6.95;;;7.50;99.90;;;;;;4882197;29;20103;-92
2022/11/04 20:28:43;;;;;;;14.80;6.35;;;7.50;99.90;;;;;;4897718;29;20370;-93
2022/11/04 20:31:17;;;;;;;16.50;10.23;;;7.60;99.90;;;;;;4897615;29;20056;-92
2022/11/04 20:33:45;;;;;;;13.88;7.03;;;7.70;99.90;;;;;;4881468;29;20040;-92
2022/11/04 20:36:11;;;;;;;13.27;7.22;;;7.60;99.90;;;;;;4881880;29;20047;-92
2022/11/04 20:38:37;;;;;;;12.48;7.72;;;7.60;99.90;;;;;;4881529;29;20040;-92
2022/11/04 20:41:17;;;;;;;15.13;9.93;;;7.60;99.90;;;;;;4880143;29;20050;-93
2022/11/04 20:43:44;;;;;;;10.27;5.78;;;7.60;99.90;;;;;;4897524;29;20091;-92
2022/11/04 20:46:13;;;;;;;15.70;4.32;;;7.60;99.90;;;;;;4897920;29;20432;-91
2022/11/04 20:48:39;;;;;;;9.23;4.00;;;7.50;99.90;;;;;;4899302;29;20096;-93
2022/11/04 20:51:11;;;;;;;15.15;7.53;;;7.50;99.90;;;;;;4900263;29;20047;-93
2022/11/04 20:53:36;;;;;;;;;;;7.50;99.90;;;;;;4885640;29;20051;-93
2022/11/04 20:56:08;;;;;;;9.68;3.88;;;7.40;99.90;;;;;;4884109;29;20318;-92
2022/11/04 20:58:35;;;;;;;12.50;6.93;;;7.40;99.90;;;;;;4900689;29;20047;-92
2022/11/04 21:01:11;;;;;;;9.35;3.13;;;7.40;99.90;;;;;;4900751;29;20040;-92
2022/11/04 21:03:36;;;;;;;8.88;3.50;;;7.30;99.90;;;;;;4884407;29;20090;-92
2022/11/04 21:06:02;;;;;;;8.85;3.85;;;7.20;99.90;;;;;;4884398;29;20091;-92
2022/11/04 21:08:28;;;;;;;10.25;2.80;;;7.20;99.90;;;;;;4885064;29;20396;-93
2022/11/04 21:10:55;;;;;;;13.80;4.03;;;7.10;99.90;;;;;;4883753;29;20095;-93
2022/11/04 21:13:21;;;;;;;6.70;2.83;;;7.10;99.90;;;;;;4884194;29;20039;-92
2022/11/04 21:15:54;;;;;;;9.98;3.03;;;7.00;99.90;;;;;;4884963;29;20087;-92
2022/11/04 21:18:20;;;;;;;14.95;7.20;;;7.00;99.90;;;;;;4885382;29;20087;-91
2022/11/04 21:20:47;;;;;;;9.23;3.42;;;7.00;99.90;;;;;;4916168;29;20692;-92
2022/11/04 21:23:14;;;;;;;8.50;3.50;;;6.90;99.90;;;;;;4903221;29;20048;-92
2022/11/04 21:25:55;;;;;;;13.70;8.18;;;6.90;99.90;;;;;;4919391;29;20044;-92
2022/11/04 21:28:20;;;;;;;10.40;3.83;;;7.00;99.90;;;;;;4892235;29;20512;-92
2022/11/04 21:30:49;;;;;;;8.93;3.45;;;6.90;99.90;;;;;;4899796;29;20048;-92
2022/11/04 21:33:15;;;;;;;9.23;3.17;;;6.90;99.90;;;;;;4891084;29;20048;-92
2022/11/04 21:35:42;;;;;;;9.80;4.43;;;6.80;99.90;;;;;;4900942;29;20048;-91
2022/11/04 21:38:14;;;;;;;8.25;3.70;;;6.80;99.90;;;;;;4935761;29;20079;-92
2022/11/04 21:40:40;;;;;;;9.18;3.30;;;6.80;99.90;;;;;;4918765;29;20052;-92
2022/11/04 21:43:06;;;;;;;7.18;3.03;;;6.80;99.90;;;;;;4907753;29;20044;-92
2022/11/04 21:45:33;;;;;;;10.80;4.40;;;6.80;99.90;;;;;;4916642;29;20059;-92
2022/11/04 21:47:59;;;;;;;8.57;3.35;;;6.70;99.90;;;;;;4898821;29;20067;-91
2022/11/04 21:50:24;;;;;;;10.45;3.85;;;6.80;99.90;;;;;;4899696;29;20490;-92
2022/11/04 21:52:50;;;;;;;9.00;3.28;;;6.80;99.90;;;;;;4883880;29;20114;-92
2022/11/04 21:55:15;;;;;;;15.75;8.50;;;6.80;99.90;;;;;;4884047;29;20044;-93
2022/11/04 21:57:41;;;;;;;9.48;3.90;;;6.90;99.90;;;;;;4883847;29;20481;-92
2022/11/04 22:00:09;;;;;;;9.90;3.28;;;6.80;99.90;;;;;;4882582;29;20040;-91
2022/11/04 22:02:41;;;;;;;12.25;4.38;;;6.80;99.90;;;;;;4914509;29;20493;-92
2022/11/04 22:05:08;;;;;;;14.02;4.13;;;6.80;99.90;;;;;;4935193;29;20044;-92
2022/11/04 22:10:18;;;;;;;10.82;5.30;;;6.90;99.90;;;;;;4911070;29;20049;-86
2022/11/04 22:12:44;;;;;;;9.52;4.05;;;7.00;99.90;;;;;;4911708;29;20036;-86
2022/11/04 22:15:10;;;;;;;10.95;4.28;;;7.10;99.90;;;;;;4914604;29;20507;-86
2022/11/04 22:17:36;;;;;;;8.95;3.70;;;7.20;99.90;;;;;;4913421;29;20219;-87
2022/11/04 22:20:01;;;;;;;12.20;4.38;;;7.30;99.90;;;;;;4913138;29;20508;-87
2022/11/04 22:22:27;;;;;;;11.13;4.13;;;7.40;99.90;;;;;;4898472;29;20375;-87
2022/11/04 22:25:06;;;;;;;10.35;3.85;;;7.30;99.90;;;;;;4914809;29;20051;-86
2022/11/04 22:27:32;;;;;;;10.55;5.00;;;7.40;99.90;;;;;;4915316;29;20039;-86
2022/11/04 22:29:59;;;;;;;10.25;3.45;;;7.40;99.90;;;;;;4897465;29;20068;-86
2022/11/04 22:32:25;;;;;;;9.75;4.45;;;7.30;99.90;;;;;;4912985;29;20601;-86
2022/11/04 22:34:50;;;;;;;11.65;6.03;;;7.40;99.90;;;;;;4913277;29;20043;-86
2022/11/04 22:37:16;;;;;;;12.98;4.80;;;7.60;99.90;;;;;;4915141;29;20401;-86
2022/11/04 22:39:42;;;;;;;13.95;8.20;;;7.60;99.90;;;;;;4897890;29;20091;-86
2022/11/04 22:42:08;;;;;;;9.77;5.13;;;7.60;99.90;;;;;;4897764;29;20108;-86
2022/11/04 22:44:34;;;;;;;10.50;4.85;;;7.50;99.90;;;;;;4913782;29;20127;-86
2022/11/04 22:46:59;;;;;;;16.83;4.72;;;7.40;99.90;;;;;;4912381;29;20238;-86
2022/11/04 22:49:25;;;;;;;8.35;3.35;;;7.30;99.90;;;;;;4915004;29;20052;-87
2022/11/04 22:51:50;;;;;;;10.02;3.60;;;7.20;99.90;;;;;;4914387;29;20551;-87
2022/11/04 22:54:17;;;;;;;7.53;3.08;;;7.20;99.90;;;;;;4897880;29;20059;-86
2022/11/04 22:56:43;;;;;;;14.60;7.90;;;7.20;99.90;;;;;;4914524;29;20051;-87
2022/11/04 22:59:09;;;;;;;9.80;4.03;;;7.30;99.90;;;;;;4913644;29;20044;-87
2022/11/04 23:01:35;;;;;;;8.20;3.38;;;7.30;99.90;;;;;;4912582;29;20323;-86
2022/11/04 23:04:01;;;;;;;8.60;4.18;;;7.30;99.90;;;;;;4912641;29;20040;-86
2022/11/04 23:06:27;;;;;;;11.77;4.68;;;7.30;99.90;;;;;;4913327;29;20036;-86
2022/11/04 23:08:53;;;;;;;9.05;3.58;;;7.40;99.90;;;;;;4895683;29;20044;-86
2022/11/04 23:19:41;;;;;;;12.48;4.28;;;7.60;99.90;;;;;;4918698;29;20044;-86
2022/11/04 23:25:04;;;;;;;9.60;3.95;;;7.60;99.90;;;;;;4896661;29;20055;-86
2022/11/04 23:30:21;;;;;;;9.68;3.20;;;7.50;99.90;;;;;;4886305;29;20135;-85
2022/11/04 23:32:48;;;;;;;9.85;3.95;;;7.40;99.90;;;;;;4911370;29;20076;-84
2022/11/04 23:37:58;;;;;;;9.27;3.53;;;7.40;99.90;;;;;;4885675;29;20051;-91
2022/11/04 23:40:25;;;;;;;13.70;3.88;;;7.40;99.90;;;;;;4894129;29;20059;-93
2022/11/04 23:42:51;;;;;;;8.68;3.38;;;7.30;99.90;;;;;;4887257;29;20067;-92
